createdAt,value
2023-05-13T00:00:51.731Z,7.50
2023-05-13T00:03:19.338Z,6.00
2023-05-13T00:05:47.054Z,5.40
2023-05-13T00:08:14.657Z,7.60
2023-05-13T00:10:42.375Z,9.60
2023-05-13T00:13:10.048Z,5.80
2023-05-13T00:15:37.588Z,6.90
2023-05-13T00:18:05.168Z,6.10
2023-05-13T00:20:32.754Z,5.20
2023-05-13T00:23:00.256Z,6.50
2023-05-13T00:25:27.812Z,7.80
2023-05-13T00:27:55.431Z,6.50
2023-05-13T00:30:23.252Z,6.80
2023-05-13T00:32:51.055Z,7.10
2023-05-13T00:35:18.737Z,8.20
2023-05-13T00:37:46.341Z,8.00
2023-05-13T00:40:21.943Z,6.40
2023-05-13T00:42:50.473Z,6.50
2023-05-13T00:45:18.392Z,6.20
2023-05-13T00:47:46.286Z,6.90
2023-05-13T00:50:14.729Z,6.30
2023-05-13T00:52:43.106Z,6.60
2023-05-13T00:55:11.601Z,5.60
2023-05-13T00:57:39.375Z,7.90
2023-05-13T01:00:08.070Z,6.80
2023-05-13T01:02:41.277Z,7.50
2023-05-13T01:05:11.681Z,6.50
2023-05-13T01:07:49.639Z,6.70
2023-05-13T01:10:23.462Z,8.00
2023-05-13T01:12:58.175Z,6.90
2023-05-13T01:15:26.914Z,8.00
2023-05-13T01:18:24.990Z,8.20
2023-05-13T01:20:53.856Z,8.80
2023-05-13T01:23:21.386Z,7.00
2023-05-13T01:25:48.904Z,8.60
2023-05-13T01:28:16.556Z,8.30
2023-05-13T01:30:45.122Z,7.40
2023-05-13T01:33:14.298Z,5.60
2023-05-13T01:35:42.165Z,9.60
2023-05-13T01:38:10.268Z,7.00
2023-05-13T01:40:38.532Z,7.70
2023-05-13T01:43:06.463Z,6.90
2023-05-13T01:45:33.991Z,5.80
2023-05-13T01:48:01.591Z,10.20
2023-05-13T01:50:29.237Z,7.10
2023-05-13T01:52:56.812Z,6.70
2023-05-13T01:55:24.467Z,6.10
2023-05-13T01:57:51.978Z,6.60
2023-05-13T02:00:19.864Z,8.00
2023-05-13T02:02:47.933Z,6.80
2023-05-13T02:05:15.742Z,8.40
2023-05-13T02:07:43.320Z,5.90
2023-05-13T02:10:11.235Z,7.50
2023-05-13T02:12:38.762Z,7.50
2023-05-13T02:15:06.808Z,8.50
2023-05-13T02:17:34.345Z,8.40
2023-05-13T02:20:02.012Z,6.20
2023-05-13T02:22:29.555Z,7.00
2023-05-13T02:24:57.138Z,8.10
2023-05-13T02:27:24.655Z,8.60
2023-05-13T02:29:52.217Z,8.10
2023-05-13T02:32:19.726Z,8.60
2023-05-13T02:34:47.329Z,8.40
2023-05-13T02:37:14.871Z,6.90
2023-05-13T02:39:42.439Z,7.70
2023-05-13T02:42:09.940Z,7.40
2023-05-13T02:44:37.474Z,7.60
2023-05-13T02:47:05.333Z,7.20
2023-05-13T02:49:32.845Z,8.20
2023-05-13T02:52:00.387Z,9.40
2023-05-13T02:54:28.485Z,7.00
2023-05-13T02:56:56.030Z,7.50
2023-05-13T02:59:23.736Z,7.70
2023-05-13T03:01:51.307Z,6.90
2023-05-13T03:04:18.968Z,8.50
2023-05-13T03:06:47.349Z,8.70
2023-05-13T03:09:14.874Z,7.60
2023-05-13T03:11:42.433Z,9.00
2023-05-13T03:14:09.997Z,9.10
2023-05-13T03:16:37.591Z,7.10
2023-05-13T03:19:05.399Z,7.20
2023-05-13T03:21:32.986Z,7.70
2023-05-13T03:24:00.512Z,7.70
2023-05-13T03:26:28.034Z,8.90
2023-05-13T03:28:55.638Z,6.70
2023-05-13T03:31:23.352Z,6.60
2023-05-13T03:33:51.033Z,7.80
2023-05-13T03:36:18.715Z,6.50
2023-05-13T03:38:46.308Z,7.00
2023-05-13T03:41:13.874Z,8.50
2023-05-13T03:43:41.437Z,7.10
2023-05-13T03:46:08.990Z,8.00
2023-05-13T03:48:36.830Z,8.80
2023-05-13T03:51:04.459Z,7.60
2023-05-13T03:53:32.266Z,6.90
2023-05-13T03:55:59.762Z,7.20
2023-05-13T03:58:27.316Z,5.60
2023-05-13T04:00:54.871Z,6.50
2023-05-13T04:03:24.212Z,6.50
2023-05-13T04:05:52.232Z,6.60
2023-05-13T04:08:19.785Z,7.80
2023-05-13T04:10:47.345Z,7.20
2023-05-13T04:13:14.931Z,6.80
2023-05-13T04:15:42.490Z,5.90
2023-05-13T04:18:10.245Z,9.60
2023-05-13T04:20:38.727Z,9.50
2023-05-13T04:23:07.121Z,8.60
2023-05-13T04:25:35.611Z,7.40
2023-05-13T04:28:03.147Z,6.30
2023-05-13T04:30:30.805Z,7.00
2023-05-13T04:32:58.404Z,7.40
2023-05-13T04:35:26.026Z,7.80
2023-05-13T04:37:53.569Z,7.90
2023-05-13T04:40:21.300Z,8.00
2023-05-13T04:42:49.088Z,7.00
2023-05-13T04:45:16.696Z,7.60
2023-05-13T04:47:44.194Z,7.60
2023-05-13T04:50:11.751Z,8.90
2023-05-13T04:52:39.768Z,9.50
2023-05-13T04:55:07.626Z,7.00
2023-05-13T04:57:35.315Z,7.30
2023-05-13T05:00:06.258Z,6.00
2023-05-13T05:02:33.953Z,8.60
2023-05-13T05:05:01.681Z,6.80
2023-05-13T05:07:29.399Z,7.90
2023-05-13T05:09:56.969Z,8.10
2023-05-13T05:12:24.681Z,8.10
2023-05-13T05:14:52.276Z,7.60
2023-05-13T05:17:19.848Z,9.60
2023-05-13T05:19:47.501Z,10.40
2023-05-13T05:22:15.137Z,7.20
2023-05-13T05:24:42.663Z,7.40
2023-05-13T05:27:10.227Z,7.20
2023-05-13T05:29:37.760Z,7.00
2023-05-13T05:32:05.837Z,8.70
2023-05-13T05:34:33.499Z,11.40
2023-05-13T05:37:01.041Z,6.40
2023-05-13T05:39:28.598Z,7.50
2023-05-13T05:41:56.174Z,8.60
2023-05-13T05:44:23.821Z,7.10
2023-05-13T05:46:51.346Z,6.70
2023-05-13T05:49:18.948Z,7.70
2023-05-13T05:51:46.512Z,7.20
2023-05-13T05:54:14.025Z,9.10
2023-05-13T05:56:41.650Z,11.10
2023-05-13T05:59:09.251Z,7.30
2023-05-13T06:01:36.933Z,8.50
2023-05-13T06:04:04.743Z,7.40
2023-05-13T06:06:32.777Z,7.20
2023-05-13T06:09:00.354Z,6.00
2023-05-13T06:11:27.902Z,6.80
2023-05-13T06:13:55.431Z,6.40
2023-05-13T06:16:24.120Z,8.90
2023-05-13T06:18:51.856Z,7.20
2023-05-13T06:21:19.493Z,8.00
2023-05-13T06:23:46.995Z,5.10
2023-05-13T06:26:14.682Z,5.70
2023-05-13T06:28:42.237Z,5.60
2023-05-13T06:31:09.878Z,5.00
2023-05-13T06:33:37.734Z,6.20
2023-05-13T06:36:05.927Z,5.20
2023-05-13T06:38:33.482Z,6.00
2023-05-13T06:41:01.034Z,5.90
2023-05-13T06:43:28.653Z,4.80
2023-05-13T06:45:56.335Z,4.50
2023-05-13T06:48:24.000Z,5.80
2023-05-13T06:50:51.539Z,5.70
2023-05-13T06:53:19.079Z,7.00
2023-05-13T06:55:46.600Z,5.30
2023-05-13T06:58:14.178Z,5.90
2023-05-13T07:00:41.846Z,5.50
2023-05-13T07:03:09.499Z,3.60
2023-05-13T07:05:37.002Z,4.30
2023-05-13T07:08:04.959Z,4.10
2023-05-13T07:10:36.030Z,4.60
2023-05-13T07:13:03.759Z,4.30
2023-05-13T07:15:31.292Z,5.20
2023-05-13T07:17:58.813Z,4.60
2023-05-13T07:20:26.438Z,4.70
2023-05-13T07:22:54.167Z,3.70
2023-05-13T07:25:21.808Z,4.50
2023-05-13T07:27:49.436Z,4.60
2023-05-13T07:30:16.966Z,4.10
2023-05-13T07:32:44.554Z,5.40
2023-05-13T07:35:12.213Z,4.20
2023-05-13T07:37:39.921Z,4.60
2023-05-13T07:40:08.195Z,3.70
2023-05-13T07:42:36.876Z,3.70
2023-05-13T07:45:05.025Z,4.10
2023-05-13T07:47:32.590Z,4.30
2023-05-13T07:50:00.227Z,3.80
2023-05-13T07:52:28.053Z,3.70
2023-05-13T07:54:58.179Z,3.90
2023-05-13T07:57:25.850Z,3.50
2023-05-13T07:59:53.428Z,4.60
2023-05-13T08:02:21.138Z,8.90
2023-05-13T08:04:48.788Z,4.70
2023-05-13T08:07:16.423Z,3.80
2023-05-13T08:09:44.037Z,4.50
2023-05-13T08:12:11.535Z,4.10
2023-05-13T08:14:39.064Z,3.50
2023-05-13T08:17:06.614Z,4.20
2023-05-13T08:19:35.511Z,5.80
2023-05-13T08:22:03.098Z,4.70
2023-05-13T08:24:30.606Z,4.80
2023-05-13T08:26:58.175Z,4.20
2023-05-13T08:29:27.591Z,6.60
2023-05-13T08:31:55.226Z,4.10
2023-05-13T08:34:22.825Z,9.70
2023-05-13T08:36:50.329Z,3.80
2023-05-13T08:39:17.857Z,4.60
2023-05-13T08:41:46.294Z,4.60
2023-05-13T08:44:14.643Z,4.00
2023-05-13T08:46:50.067Z,3.80
2023-05-13T08:49:17.754Z,4.30
2023-05-13T08:51:45.440Z,4.00
2023-05-13T08:54:13.823Z,5.90
2023-05-13T08:56:41.344Z,5.20
2023-05-13T08:59:08.871Z,4.60
2023-05-13T09:01:36.564Z,4.70
2023-05-13T09:04:08.667Z,3.80
2023-05-13T09:06:36.267Z,6.70
2023-05-13T09:09:03.976Z,4.40
2023-05-13T09:11:31.521Z,5.30
2023-05-13T09:14:00.437Z,5.60
2023-05-13T09:16:29.350Z,6.40
2023-05-13T09:19:03.128Z,4.20
2023-05-13T09:21:35.123Z,5.00
2023-05-13T09:24:14.068Z,4.50
2023-05-13T09:26:42.279Z,3.90
2023-05-13T09:29:26.034Z,4.30
2023-05-13T09:31:56.883Z,4.40
2023-05-13T09:34:34.939Z,5.70
2023-05-13T09:37:07.624Z,5.20
2023-05-13T09:39:41.119Z,3.90
2023-05-13T09:42:15.976Z,4.30
2023-05-13T09:44:44.711Z,5.20
2023-05-13T09:47:14.140Z,4.30
2023-05-13T09:49:43.605Z,3.90
2023-05-13T09:54:39.359Z,4.10
2023-05-13T09:57:06.980Z,3.80
2023-05-13T09:59:34.932Z,5.10
2023-05-13T10:02:07.021Z,4.00
2023-05-13T10:04:34.880Z,8.30
2023-05-13T10:07:06.659Z,3.40
2023-05-13T10:09:38.388Z,4.40
2023-05-13T10:12:08.082Z,4.60
2023-05-13T10:14:38.765Z,3.30
2023-05-13T10:17:07.645Z,3.80
2023-05-13T10:19:36.180Z,4.80
2023-05-13T10:22:04.149Z,3.40
2023-05-13T10:24:33.393Z,7.80
2023-05-13T10:29:29.568Z,5.10
2023-05-13T10:32:00.359Z,5.20
2023-05-13T10:34:28.956Z,4.40
2023-05-13T10:37:18.699Z,4.10
2023-05-13T10:40:24.069Z,5.40
2023-05-13T10:43:22.992Z,4.50
2023-05-13T10:45:52.467Z,4.10
2023-05-13T10:48:20.164Z,5.80
2023-05-13T10:51:06.228Z,4.70
2023-05-13T10:53:42.881Z,15.00
2023-05-13T10:56:10.526Z,6.00
2023-05-13T10:58:38.315Z,3.90
2023-05-13T11:01:17.128Z,3.60
2023-05-13T11:03:55.853Z,4.50
2023-05-13T11:06:29.815Z,5.40
2023-05-13T11:08:57.348Z,4.60
2023-05-13T11:11:30.608Z,4.70
2023-05-13T11:14:18.906Z,4.50
2023-05-13T11:16:53.867Z,3.70
2023-05-13T11:19:25.598Z,4.80
2023-05-13T11:21:55.417Z,7.50
2023-05-13T11:24:23.619Z,7.40
2023-05-13T11:26:53.494Z,5.00
2023-05-13T11:29:32.867Z,4.40
2023-05-13T11:32:01.966Z,4.70
2023-05-13T11:34:31.261Z,4.90
2023-05-13T11:37:04.416Z,3.80
2023-05-13T11:39:33.086Z,5.10
2023-05-13T11:42:00.978Z,6.40
2023-05-13T11:44:28.892Z,5.00
2023-05-13T11:47:06.288Z,5.20
2023-05-13T11:49:35.977Z,5.10
2023-05-13T11:52:14.352Z,4.80
2023-05-13T11:54:45.640Z,6.80
2023-05-13T11:57:31.079Z,6.40
2023-05-13T11:59:59.609Z,5.10
2023-05-13T12:02:29.185Z,4.40
2023-05-13T12:05:01.710Z,4.00
2023-05-13T12:07:29.367Z,4.60
2023-05-13T12:09:59.240Z,4.00
2023-05-13T12:12:28.698Z,4.70
2023-05-13T12:15:02.064Z,5.80
2023-05-13T12:17:31.305Z,5.30
2023-05-13T12:22:44.860Z,4.90
2023-05-13T12:25:41.527Z,5.30
2023-05-13T12:28:17.981Z,3.60
2023-05-13T12:31:03.199Z,5.20
2023-05-13T12:33:42.211Z,5.70
2023-05-13T12:36:21.031Z,4.60
2023-05-13T12:39:00.191Z,5.60
2023-05-13T12:41:34.588Z,3.10
2023-05-13T12:44:08.890Z,3.00
2023-05-13T12:46:37.308Z,3.00
2023-05-13T12:51:32.900Z,3.10
2023-05-13T12:54:00.575Z,10.40
2023-05-13T12:56:28.192Z,4.70
2023-05-13T12:58:56.042Z,3.70
2023-05-13T13:01:24.010Z,3.60
2023-05-13T13:03:51.642Z,3.80
2023-05-13T13:06:19.257Z,3.40
2023-05-13T13:08:46.831Z,4.40
2023-05-13T13:11:14.366Z,3.70
2023-05-13T13:13:41.881Z,3.40
2023-05-13T13:16:09.605Z,4.10
2023-05-13T13:18:37.354Z,3.50
2023-05-13T13:21:05.097Z,4.70
2023-05-13T13:23:33.279Z,3.50
2023-05-13T13:26:00.898Z,3.30
2023-05-13T13:28:28.738Z,4.50
2023-05-13T13:30:56.257Z,4.10
2023-05-13T13:33:23.924Z,2.90
2023-05-13T13:35:52.143Z,3.40
2023-05-13T13:38:22.433Z,3.80
2023-05-13T13:40:49.967Z,2.80
2023-05-13T13:43:17.547Z,4.20
2023-05-13T13:45:45.169Z,4.00
2023-05-13T13:48:13.410Z,3.40
2023-05-13T13:50:40.954Z,4.60
2023-05-13T13:53:08.494Z,4.10
2023-05-13T13:55:36.121Z,3.90
2023-05-13T13:58:03.660Z,4.70
2023-05-13T14:00:31.139Z,4.90
2023-05-13T14:02:58.707Z,3.60
2023-05-13T14:05:26.274Z,3.30
2023-05-13T14:07:53.789Z,3.70
2023-05-13T14:10:21.636Z,3.10
2023-05-13T14:12:49.471Z,2.90
2023-05-13T14:15:17.075Z,5.00
2023-05-13T14:17:47.694Z,3.40
2023-05-13T14:20:15.341Z,3.40
2023-05-13T14:22:42.892Z,3.00
2023-05-13T14:25:10.475Z,2.70
2023-05-13T14:27:38.046Z,3.30
2023-05-13T14:30:06.655Z,4.70
2023-05-13T14:35:02.177Z,4.50
2023-05-13T14:37:29.772Z,3.60
2023-05-13T14:39:57.324Z,4.20
2023-05-13T14:42:25.076Z,3.90
2023-05-13T14:44:52.663Z,4.20
2023-05-13T14:47:20.223Z,4.80
2023-05-13T14:49:47.911Z,3.90
2023-05-13T14:52:15.480Z,3.60
2023-05-13T14:54:43.108Z,3.90
2023-05-13T14:57:13.710Z,3.70
2023-05-13T14:59:41.303Z,5.70
2023-05-13T15:02:08.907Z,3.60
2023-05-13T15:04:36.716Z,3.90
2023-05-13T15:07:04.500Z,4.20
2023-05-13T15:09:32.165Z,7.80
2023-05-13T15:11:59.731Z,3.40
2023-05-13T15:14:27.260Z,2.80
2023-05-13T15:16:54.948Z,4.20
2023-05-13T15:19:22.523Z,4.30
2023-05-13T15:21:50.110Z,3.80
2023-05-13T15:24:17.740Z,4.50
2023-05-13T15:26:45.302Z,4.10
2023-05-13T15:29:12.806Z,3.20
2023-05-13T15:31:40.299Z,3.70
2023-05-13T15:34:07.896Z,5.80
2023-05-13T15:36:35.383Z,5.50
2023-05-13T15:39:03.071Z,7.20
2023-05-13T15:41:30.601Z,4.10
2023-05-13T15:43:58.159Z,4.80
2023-05-13T15:46:25.830Z,4.70
2023-05-13T15:48:53.566Z,3.80
2023-05-13T15:51:21.109Z,3.60
2023-05-13T15:53:48.670Z,4.10
2023-05-13T15:56:16.237Z,4.50
2023-05-13T15:58:43.904Z,3.30
2023-05-13T16:01:11.476Z,4.00
2023-05-13T16:03:39.266Z,4.30
2023-05-13T16:06:06.855Z,3.30
2023-05-13T16:08:34.505Z,4.40
2023-05-13T16:11:02.149Z,3.90
2023-05-13T16:13:29.672Z,4.50
2023-05-13T16:15:57.285Z,5.50
2023-05-13T16:18:25.032Z,5.40
2023-05-13T16:20:52.789Z,6.20
2023-05-13T16:23:20.288Z,4.00
2023-05-13T16:25:47.844Z,4.20
2023-05-13T16:28:15.584Z,5.80
2023-05-13T16:30:43.121Z,3.70
2023-05-13T16:33:10.637Z,3.90
2023-05-13T16:35:38.244Z,4.60
2023-05-13T16:38:05.920Z,5.20
2023-05-13T16:40:33.436Z,5.00
2023-05-13T16:43:03.300Z,6.90
2023-05-13T16:45:31.525Z,6.50
2023-05-13T16:47:59.210Z,4.30
2023-05-13T16:50:26.898Z,4.40
2023-05-13T16:52:54.425Z,5.50
2023-05-13T16:55:22.018Z,2.80
2023-05-13T16:57:49.567Z,5.00
2023-05-13T17:00:17.646Z,4.10
2023-05-13T17:02:45.287Z,4.00
2023-05-13T17:05:13.070Z,3.80
2023-05-13T17:07:40.655Z,4.60
2023-05-13T17:10:08.832Z,5.00
2023-05-13T17:12:36.523Z,3.30
2023-05-13T17:15:04.430Z,3.40
2023-05-13T17:17:34.684Z,3.50
2023-05-13T17:20:02.285Z,3.30
2023-05-13T17:22:29.909Z,4.60
2023-05-13T17:24:57.457Z,5.70
2023-05-13T17:27:25.175Z,6.50
2023-05-13T17:29:52.721Z,4.90
2023-05-13T17:32:20.281Z,5.50
2023-05-13T17:34:47.863Z,6.50
2023-05-13T17:37:15.385Z,13.80
2023-05-13T17:39:43.073Z,6.10
2023-05-13T17:42:10.591Z,13.70
2023-05-13T17:44:38.103Z,8.30
2023-05-13T17:47:05.711Z,7.70
2023-05-13T17:49:33.226Z,9.20
2023-05-13T17:52:00.804Z,22.90
2023-05-13T17:54:30.720Z,12.10
2023-05-13T17:56:58.307Z,9.30
2023-05-13T17:59:25.809Z,8.50
2023-05-13T18:01:53.352Z,13.80
2023-05-13T18:04:20.885Z,13.00
2023-05-13T18:06:48.413Z,9.30
2023-05-13T18:09:15.957Z,8.10
2023-05-13T18:11:43.462Z,11.30
2023-05-13T18:14:10.963Z,13.10
2023-05-13T18:16:38.582Z,13.40
2023-05-13T18:19:06.168Z,16.20
2023-05-13T18:21:33.744Z,16.40
2023-05-13T18:24:01.386Z,18.40
2023-05-13T18:26:28.891Z,49.00
2023-05-13T18:28:56.426Z,45.40
2023-05-13T18:31:24.155Z,57.90
2023-05-13T18:33:51.716Z,49.50
2023-05-13T18:36:19.259Z,33.80
2023-05-13T18:38:46.794Z,17.00
2023-05-13T18:41:14.511Z,14.90
2023-05-13T18:43:42.017Z,14.00
2023-05-13T18:46:09.733Z,15.80
2023-05-13T18:48:37.460Z,27.90
2023-05-13T18:51:04.959Z,28.70
2023-05-13T18:53:32.496Z,36.70
2023-05-13T18:56:00.102Z,17.40
2023-05-13T18:58:27.670Z,13.70
2023-05-13T19:00:55.257Z,13.50
2023-05-13T19:03:23.064Z,10.00
2023-05-13T19:05:50.633Z,12.30
2023-05-13T19:08:18.187Z,9.40
2023-05-13T19:10:45.708Z,7.20
2023-05-13T19:13:13.307Z,8.40
2023-05-13T19:15:41.187Z,11.70
2023-05-13T19:18:08.925Z,13.60
2023-05-13T19:20:36.663Z,21.70
2023-05-13T19:23:04.509Z,18.60
2023-05-13T19:25:32.147Z,19.40
2023-05-13T19:27:59.844Z,18.60
2023-05-13T19:30:28.206Z,20.30
2023-05-13T19:32:55.754Z,19.70
2023-05-13T19:35:25.408Z,21.70
2023-05-13T19:37:52.964Z,20.50
2023-05-13T19:40:20.757Z,16.30
2023-05-13T19:42:48.391Z,15.90
2023-05-13T19:45:20.737Z,14.60
2023-05-13T19:47:49.053Z,15.70
2023-05-13T19:50:16.731Z,13.50
2023-05-13T19:52:44.284Z,17.90
2023-05-13T19:55:12.352Z,16.80
2023-05-13T19:57:41.043Z,19.60
2023-05-13T20:00:11.540Z,15.80
2023-05-13T20:02:40.115Z,17.60
2023-05-13T20:05:08.617Z,15.80
2023-05-13T20:07:36.190Z,13.80
2023-05-13T20:10:04.562Z,15.40
2023-05-13T20:12:32.258Z,14.30
2023-05-13T20:14:59.826Z,18.40
2023-05-13T20:17:27.619Z,18.40
2023-05-13T20:19:55.581Z,16.50
2023-05-13T20:22:23.249Z,13.50
2023-05-13T20:24:51.550Z,13.70
2023-05-13T20:27:19.083Z,13.00
2023-05-13T20:29:47.775Z,12.00
2023-05-13T20:32:15.942Z,13.40
2023-05-13T20:34:43.650Z,11.00
2023-05-13T20:37:11.212Z,11.10
2023-05-13T20:39:38.741Z,10.40
2023-05-13T20:42:06.348Z,11.20
2023-05-13T20:44:34.318Z,14.30
2023-05-13T20:47:01.859Z,11.80
2023-05-13T20:49:29.428Z,10.20
2023-05-13T20:52:02.108Z,11.70
2023-05-13T20:54:29.801Z,12.80
2023-05-13T20:56:57.308Z,12.20
2023-05-13T20:59:24.980Z,10.40
2023-05-13T21:01:52.563Z,13.60
2023-05-13T21:04:20.205Z,13.90
2023-05-13T21:06:47.817Z,12.40
2023-05-13T21:09:15.373Z,11.60
2023-05-13T21:11:43.192Z,15.50
2023-05-13T21:14:10.717Z,11.80
2023-05-13T21:16:38.231Z,11.60
2023-05-13T21:19:06.017Z,10.50
2023-05-13T21:21:33.851Z,13.10
2023-05-13T21:24:01.398Z,11.70
2023-05-13T21:26:28.984Z,13.30
2023-05-13T21:28:56.516Z,11.30
2023-05-13T21:31:24.318Z,13.00
2023-05-13T21:33:51.823Z,14.40
2023-05-13T21:36:19.407Z,14.70
2023-05-13T21:38:46.909Z,13.50
2023-05-13T21:41:14.545Z,11.90
2023-05-13T21:43:42.067Z,13.20
2023-05-13T21:46:09.666Z,14.20
2023-05-13T21:48:37.454Z,11.40
2023-05-13T21:51:05.306Z,11.20
2023-05-13T21:53:32.889Z,10.20
2023-05-13T21:56:00.414Z,11.80
2023-05-13T21:58:27.924Z,10.90
2023-05-13T22:00:55.626Z,11.50
2023-05-13T22:03:23.367Z,13.00
2023-05-13T22:05:50.998Z,10.50
2023-05-13T22:08:18.534Z,11.70
2023-05-13T22:10:46.040Z,12.00
2023-05-13T22:13:13.565Z,12.80
2023-05-13T22:15:41.138Z,11.70
2023-05-13T22:18:08.797Z,11.30
2023-05-13T22:20:36.444Z,11.30
2023-05-13T22:23:03.956Z,13.20
2023-05-13T22:25:34.373Z,10.70
2023-05-13T22:28:01.953Z,11.80
2023-05-13T22:30:29.543Z,12.10
2023-05-13T22:32:57.198Z,12.50
2023-05-13T22:35:24.893Z,13.60
2023-05-13T22:37:52.490Z,11.00
2023-05-13T22:40:20.069Z,10.70
2023-05-13T22:42:47.629Z,12.10
2023-05-13T22:45:15.183Z,10.50
2023-05-13T22:47:42.742Z,12.30
2023-05-13T22:50:10.897Z,14.50
2023-05-13T22:52:38.466Z,14.70
2023-05-13T22:55:07.098Z,15.40
2023-05-13T22:57:34.632Z,13.90
2023-05-13T23:00:02.168Z,15.40
2023-05-13T23:02:29.857Z,16.40
2023-05-13T23:04:57.425Z,14.00
2023-05-13T23:07:25.105Z,14.70
2023-05-13T23:09:52.633Z,14.30
2023-05-13T23:12:20.184Z,15.30
2023-05-13T23:14:47.693Z,13.40
2023-05-13T23:17:18.276Z,14.40
2023-05-13T23:19:45.805Z,15.40
2023-05-13T23:22:13.347Z,12.30
2023-05-13T23:24:40.865Z,12.30
2023-05-13T23:27:08.426Z,13.40
2023-05-13T23:29:36.091Z,13.60
2023-05-13T23:32:05.911Z,13.50
2023-05-13T23:34:34.578Z,11.10
2023-05-13T23:37:02.100Z,13.90
2023-05-13T23:39:29.641Z,13.00
2023-05-13T23:41:57.279Z,11.60
2023-05-13T23:44:25.036Z,15.20
2023-05-13T23:46:52.591Z,11.10
2023-05-13T23:49:24.403Z,14.20
2023-05-13T23:51:51.904Z,12.10
2023-05-13T23:54:19.433Z,14.10
2023-05-13T23:56:46.966Z,14.70
2023-05-13T23:59:17.495Z,15.10
